QLK212 YBCG-YSSY
Flight info
| Callsign | QLK212 |
|---|---|
| Flight time | 1h 10m |
| Altitude | 38000 |
| Route | GOMOL Q16 APAGI H91 IGDAM/N0447F370 H652 BOREE |
| Aircraft | A319/M-SDE3FGHIRWY/LB1 |
Departure
| Time | 2026-04-30 08:35 |
|---|---|
| Airport | Gold Coast Airport (YBCG) |
Arrival
| Time | 2026-04-30 09:45 |
|---|---|
| Airport | Sydney Kingsford Smith International Airport (YSSY) |
| Time | Latitude | Longitude | Altitude | Speed | Heading |
|---|---|---|---|---|---|
| 2026-04-30 08:16 | -28.16695 | 153.51167 | 30 ft | 0 kts | 60° |
| 2026-04-30 08:27 | -28.16697 | 153.51162 | 26 ft | 2 kts | 60° |
| 2026-04-30 08:27 | -28.16707 | 153.51144 | 31 ft | 3 kts | 58° |
| 2026-04-30 08:28 | -28.16718 | 153.51124 | 30 ft | 3 kts | 53° |
| 2026-04-30 08:28 | -28.16730 | 153.51107 | 31 ft | 3 kts | 41° |
| 2026-04-30 08:28 | -28.16746 | 153.51095 | 30 ft | 3 kts | 7° |
| 2026-04-30 08:28 | -28.16756 | 153.51095 | 29 ft | 1 kts | 331° |
| 2026-04-30 08:29 | -28.16757 | 153.51095 | 29 ft | 0 kts | 331° |
| 2026-04-30 08:31 | -28.16755 | 153.51094 | 29 ft | 3 kts | 331° |
| 2026-04-30 08:31 | -28.16660 | 153.51034 | 28 ft | 24 kts | 330° |
| 2026-04-30 08:32 | -28.16506 | 153.50933 | 28 ft | 26 kts | 320° |
| 2026-04-30 08:32 | -28.16456 | 153.50796 | 27 ft | 20 kts | 331° |
| 2026-04-30 08:32 | -28.16324 | 153.50714 | 27 ft | 23 kts | 330° |
| 2026-04-30 08:32 | -28.16177 | 153.50621 | 27 ft | 25 kts | 331° |
| 2026-04-30 08:33 | -28.16015 | 153.50518 | 27 ft | 28 kts | 330° |
| 2026-04-30 08:33 | -28.15839 | 153.50406 | 30 ft | 30 kts | 330° |
| 2026-04-30 08:33 | -28.15659 | 153.50292 | 29 ft | 26 kts | 330° |
| 2026-04-30 08:33 | -28.15608 | 153.50191 | 27 ft | 10 kts | 254° |
| 2026-04-30 08:34 | -28.15639 | 153.50125 | 28 ft | 14 kts | 234° |
| 2026-04-30 08:34 | -28.15763 | 153.50142 | 27 ft | 29 kts | 150° |
| 2026-04-30 08:34 | -28.16125 | 153.50372 | 26 ft | 90 kts | 150° |
| 2026-04-30 08:34 | -28.16835 | 153.50823 | 32 ft | 143 kts | 152° |
| 2026-04-30 08:35 | -28.17737 | 153.51398 | 560 ft | 146 kts | 154° |
| 2026-04-30 08:35 | -28.18591 | 153.51944 | 1355 ft | 141 kts | 149° |
| 2026-04-30 08:35 | -28.19462 | 153.52504 | 1924 ft | 153 kts | 148° |
| 2026-04-30 08:35 | -28.20502 | 153.53049 | 2286 ft | 178 kts | 155° |
| 2026-04-30 08:36 | -28.21756 | 153.53589 | 2684 ft | 205 kts | 156° |
| 2026-04-30 08:36 | -28.23174 | 153.54181 | 3252 ft | 230 kts | 157° |
| 2026-04-30 08:36 | -28.24757 | 153.54746 | 4031 ft | 247 kts | 169° |
| 2026-04-30 08:36 | -28.26487 | 153.54393 | 4971 ft | 266 kts | 205° |
| 2026-04-30 08:37 | -28.27862 | 153.52937 | 5986 ft | 278 kts | 230° |
| 2026-04-30 08:37 | -28.28569 | 153.51680 | 6712 ft | 282 kts | 237° |
| 2026-04-30 08:37 | -28.29486 | 153.49723 | 7671 ft | 287 kts | 239° |
| 2026-04-30 08:37 | -28.30749 | 153.47021 | 8955 ft | 292 kts | 237° |
| 2026-04-30 08:38 | -28.31781 | 153.45022 | 9910 ft | 295 kts | 235° |
| 2026-04-30 08:38 | -28.32510 | 153.43706 | 10474 ft | 300 kts | 233° |
| 2026-04-30 08:38 | -28.33702 | 153.41662 | 10874 ft | 322 kts | 232° |
| 2026-04-30 08:38 | -28.35019 | 153.39505 | 11282 ft | 340 kts | 232° |
| 2026-04-30 08:39 | -28.36404 | 153.37284 | 12008 ft | 347 kts | 231° |
| 2026-04-30 08:39 | -28.37814 | 153.35037 | 12786 ft | 352 kts | 232° |
| 2026-04-30 08:39 | -28.39239 | 153.32764 | 13573 ft | 356 kts | 233° |
| 2026-04-30 08:39 | -28.40677 | 153.30457 | 14337 ft | 360 kts | 232° |
| 2026-04-30 08:40 | -28.42122 | 153.28127 | 15066 ft | 362 kts | 232° |
| 2026-04-30 08:40 | -28.43579 | 153.25773 | 15747 ft | 366 kts | 233° |
| 2026-04-30 08:40 | -28.45050 | 153.23392 | 16445 ft | 369 kts | 233° |
| 2026-04-30 08:40 | -28.46534 | 153.20991 | 17113 ft | 373 kts | 232° |
| 2026-04-30 08:41 | -28.48031 | 153.18570 | 17811 ft | 376 kts | 233° |
| 2026-04-30 08:41 | -28.49543 | 153.16125 | 18498 ft | 380 kts | 232° |
| 2026-04-30 08:41 | -28.51054 | 153.13686 | 19116 ft | 383 kts | 232° |
| 2026-04-30 08:41 | -28.52591 | 153.11201 | 19738 ft | 385 kts | 233° |
| 2026-04-30 08:42 | -28.54132 | 153.08706 | 20374 ft | 387 kts | 234° |
| 2026-04-30 08:42 | -28.55685 | 153.06189 | 21018 ft | 389 kts | 234° |
| 2026-04-30 08:42 | -28.57240 | 153.03663 | 21655 ft | 391 kts | 234° |
| 2026-04-30 08:42 | -28.58802 | 153.01122 | 22277 ft | 392 kts | 234° |
| 2026-04-30 08:43 | -28.60370 | 152.98571 | 22896 ft | 395 kts | 234° |
| 2026-04-30 08:43 | -28.61944 | 152.96008 | 23514 ft | 397 kts | 235° |
| 2026-04-30 08:43 | -28.63533 | 152.93426 | 24056 ft | 399 kts | 235° |
| 2026-04-30 08:43 | -28.65131 | 152.90828 | 24520 ft | 402 kts | 234° |
| 2026-04-30 08:44 | -28.66742 | 152.88210 | 24954 ft | 406 kts | 234° |
| 2026-04-30 08:44 | -28.68366 | 152.85575 | 25424 ft | 407 kts | 235° |
| 2026-04-30 08:44 | -28.69995 | 152.82923 | 25873 ft | 410 kts | 235° |
| 2026-04-30 08:44 | -28.71629 | 152.80253 | 26343 ft | 411 kts | 236° |
| 2026-04-30 08:45 | -28.73267 | 152.77569 | 26778 ft | 414 kts | 236° |
| 2026-04-30 08:45 | -28.74913 | 152.74870 | 27230 ft | 416 kts | 236° |
| 2026-04-30 08:45 | -28.76570 | 152.72157 | 27663 ft | 418 kts | 236° |
| 2026-04-30 08:45 | -28.78238 | 152.69429 | 28103 ft | 421 kts | 236° |
| 2026-04-30 08:46 | -28.79920 | 152.66684 | 28557 ft | 423 kts | 236° |
| 2026-04-30 08:46 | -28.81603 | 152.63927 | 29000 ft | 425 kts | 236° |
| 2026-04-30 08:46 | -28.83317 | 152.61229 | 29424 ft | 428 kts | 231° |
| 2026-04-30 08:46 | -28.85403 | 152.58793 | 29808 ft | 432 kts | 221° |
| 2026-04-30 08:47 | -28.87857 | 152.56793 | 30205 ft | 436 kts | 211° |
| 2026-04-30 08:47 | -28.90552 | 152.55170 | 30573 ft | 439 kts | 209° |
| 2026-04-30 08:47 | -28.93274 | 152.53565 | 30905 ft | 441 kts | 209° |
| 2026-04-30 08:47 | -28.96003 | 152.51946 | 31240 ft | 443 kts | 209° |
| 2026-04-30 08:48 | -28.98738 | 152.50316 | 31591 ft | 444 kts | 210° |
| 2026-04-30 08:48 | -29.01481 | 152.48678 | 31912 ft | 446 kts | 210° |
| 2026-04-30 08:48 | -29.04237 | 152.47030 | 32236 ft | 447 kts | 210° |
| 2026-04-30 08:48 | -29.07064 | 152.45558 | 32672 ft | 448 kts | 204° |
| 2026-04-30 08:49 | -29.09959 | 152.44255 | 33111 ft | 447 kts | 204° |
| 2026-04-30 08:49 | -29.12852 | 152.42975 | 33572 ft | 445 kts | 204° |
| 2026-04-30 08:49 | -29.15741 | 152.41715 | 34039 ft | 444 kts | 204° |
| 2026-04-30 08:49 | -29.18625 | 152.40465 | 34499 ft | 442 kts | 204° |
| 2026-04-30 08:50 | -29.21498 | 152.39216 | 34890 ft | 441 kts | 204° |
| 2026-04-30 08:50 | -29.24365 | 152.37961 | 35252 ft | 441 kts | 204° |
| 2026-04-30 08:50 | -29.27230 | 152.36698 | 35599 ft | 441 kts | 204° |
| 2026-04-30 08:50 | -29.30090 | 152.35430 | 35948 ft | 441 kts | 204° |
| 2026-04-30 08:51 | -29.32950 | 152.34161 | 36282 ft | 441 kts | 204° |
| 2026-04-30 08:51 | -29.35810 | 152.32893 | 36615 ft | 441 kts | 204° |
| 2026-04-30 08:51 | -29.38631 | 152.31643 | 36930 ft | 441 kts | 204° |
| 2026-04-30 08:51 | -29.41493 | 152.30378 | 37234 ft | 441 kts | 204° |
| 2026-04-30 08:52 | -29.44355 | 152.29116 | 37541 ft | 441 kts | 204° |
| 2026-04-30 08:52 | -29.47217 | 152.27857 | 37850 ft | 441 kts | 204° |
| 2026-04-30 08:52 | -29.50083 | 152.26591 | 38143 ft | 441 kts | 204° |
| 2026-04-30 08:52 | -29.52945 | 152.25323 | 38375 ft | 441 kts | 205° |
| 2026-04-30 08:53 | -29.55819 | 152.24044 | 38416 ft | 446 kts | 205° |
| 2026-04-30 08:53 | -29.61669 | 152.21427 | 38412 ft | 456 kts | 204° |
| 2026-04-30 08:54 | -29.67613 | 152.18779 | 38418 ft | 459 kts | 204° |
| 2026-04-30 08:54 | -29.73576 | 152.16132 | 38420 ft | 460 kts | 204° |
| 2026-04-30 08:55 | -29.79540 | 152.13481 | 38404 ft | 459 kts | 204° |
| 2026-04-30 08:55 | -29.85499 | 152.10828 | 38420 ft | 459 kts | 204° |
| 2026-04-30 08:56 | -29.91453 | 152.08158 | 38427 ft | 459 kts | 204° |
| 2026-04-30 08:56 | -29.97405 | 152.05486 | 38424 ft | 459 kts | 204° |
| 2026-04-30 08:57 | -30.03320 | 152.02837 | 38438 ft | 459 kts | 204° |
| 2026-04-30 08:57 | -30.09276 | 152.00164 | 38438 ft | 459 kts | 204° |
| 2026-04-30 08:58 | -30.15221 | 151.97501 | 38441 ft | 459 kts | 204° |
| 2026-04-30 08:58 | -30.21173 | 151.94825 | 38437 ft | 459 kts | 204° |
| 2026-04-30 08:59 | -30.27117 | 151.92145 | 38427 ft | 459 kts | 204° |
| 2026-04-30 08:59 | -30.33059 | 151.89458 | 38437 ft | 458 kts | 204° |
| 2026-04-30 09:00 | -30.39002 | 151.86772 | 38430 ft | 458 kts | 204° |
| 2026-04-30 09:00 | -30.44944 | 151.84086 | 38452 ft | 458 kts | 204° |
| 2026-04-30 09:01 | -30.50884 | 151.81400 | 38448 ft | 458 kts | 204° |
| 2026-04-30 09:01 | -30.56824 | 151.78705 | 38440 ft | 458 kts | 204° |
| 2026-04-30 09:02 | -30.65680 | 151.74690 | 38440 ft | 458 kts | 204° |
| 2026-04-30 09:02 | -30.71618 | 151.71991 | 38449 ft | 458 kts | 204° |
| 2026-04-30 09:03 | -30.77544 | 151.69285 | 38440 ft | 458 kts | 204° |
| 2026-04-30 09:03 | -30.83466 | 151.66583 | 38435 ft | 457 kts | 204° |
| 2026-04-30 09:04 | -30.89397 | 151.63877 | 38444 ft | 457 kts | 204° |
| 2026-04-30 09:04 | -30.95322 | 151.61173 | 38446 ft | 457 kts | 204° |
| 2026-04-30 09:05 | -31.01242 | 151.58459 | 38455 ft | 457 kts | 205° |
| 2026-04-30 09:05 | -31.07164 | 151.55738 | 38441 ft | 457 kts | 205° |
| 2026-04-30 09:06 | -31.13037 | 151.53037 | 38453 ft | 457 kts | 204° |
| 2026-04-30 09:06 | -31.18955 | 151.50318 | 38451 ft | 457 kts | 204° |
| 2026-04-30 09:07 | -31.24867 | 151.47592 | 38446 ft | 457 kts | 204° |
| 2026-04-30 09:07 | -31.30781 | 151.44864 | 38434 ft | 457 kts | 204° |
| 2026-04-30 09:08 | -31.36695 | 151.42140 | 38442 ft | 457 kts | 204° |
| 2026-04-30 09:08 | -31.42623 | 151.39431 | 38439 ft | 457 kts | 204° |
| 2026-04-30 09:09 | -31.48565 | 151.36792 | 38438 ft | 457 kts | 204° |
| 2026-04-30 09:09 | -31.54520 | 151.34155 | 38441 ft | 457 kts | 204° |
| 2026-04-30 09:10 | -31.60464 | 151.31502 | 38441 ft | 457 kts | 204° |
| 2026-04-30 09:10 | -31.66401 | 151.28836 | 38441 ft | 457 kts | 204° |
| 2026-04-30 09:11 | -31.72303 | 151.26182 | 38442 ft | 457 kts | 204° |
| 2026-04-30 09:11 | -31.78234 | 151.23514 | 38444 ft | 457 kts | 204° |
| 2026-04-30 09:12 | -31.84175 | 151.20848 | 38431 ft | 457 kts | 204° |
| 2026-04-30 09:12 | -31.90106 | 151.18176 | 38429 ft | 456 kts | 204° |
| 2026-04-30 09:13 | -31.96035 | 151.15499 | 38425 ft | 457 kts | 204° |
| 2026-04-30 09:13 | -32.01972 | 151.12834 | 38436 ft | 456 kts | 203° |
| 2026-04-30 09:14 | -32.07903 | 151.10175 | 38366 ft | 454 kts | 203° |
| 2026-04-30 09:14 | -32.10854 | 151.08853 | 37625 ft | 456 kts | 203° |
| 2026-04-30 09:14 | -32.13816 | 151.07523 | 37104 ft | 454 kts | 203° |
| 2026-04-30 09:15 | -32.16761 | 151.06197 | 36424 ft | 454 kts | 202° |
| 2026-04-30 09:15 | -32.19715 | 151.04866 | 35662 ft | 454 kts | 202° |
| 2026-04-30 09:15 | -32.22662 | 151.03541 | 34581 ft | 454 kts | 202° |
| 2026-04-30 09:15 | -32.25598 | 151.02219 | 33873 ft | 446 kts | 202° |
| 2026-04-30 09:16 | -32.28472 | 151.00926 | 33440 ft | 439 kts | 202° |
| 2026-04-30 09:16 | -32.31307 | 150.99647 | 32921 ft | 434 kts | 201° |
| 2026-04-30 09:16 | -32.34117 | 150.98380 | 32395 ft | 430 kts | 201° |
| 2026-04-30 09:16 | -32.36863 | 150.97142 | 31895 ft | 426 kts | 201° |
| 2026-04-30 09:17 | -32.39619 | 150.95898 | 31383 ft | 422 kts | 201° |
| 2026-04-30 09:17 | -32.42348 | 150.94661 | 30871 ft | 418 kts | 201° |
| 2026-04-30 09:17 | -32.45053 | 150.93432 | 30340 ft | 415 kts | 201° |
| 2026-04-30 09:17 | -32.47772 | 150.92343 | 29809 ft | 410 kts | 194° |
| 2026-04-30 09:18 | -32.50568 | 150.91819 | 29312 ft | 405 kts | 184° |
| 2026-04-30 09:18 | -32.53367 | 150.91890 | 28819 ft | 401 kts | 174° |
| 2026-04-30 09:18 | -32.56109 | 150.92362 | 28340 ft | 397 kts | 172° |
| 2026-04-30 09:18 | -32.58824 | 150.92844 | 27869 ft | 393 kts | 172° |
| 2026-04-30 09:19 | -32.61513 | 150.93318 | 27409 ft | 389 kts | 172° |
| 2026-04-30 09:19 | -32.64183 | 150.93789 | 26963 ft | 386 kts | 172° |
| 2026-04-30 09:19 | -32.66822 | 150.94256 | 26531 ft | 383 kts | 171° |
| 2026-04-30 09:19 | -32.69450 | 150.94720 | 26106 ft | 380 kts | 171° |
| 2026-04-30 09:20 | -32.72059 | 150.95178 | 25681 ft | 378 kts | 171° |
| 2026-04-30 09:20 | -32.74651 | 150.95631 | 25273 ft | 375 kts | 171° |
| 2026-04-30 09:20 | -32.77222 | 150.96084 | 24864 ft | 372 kts | 171° |
| 2026-04-30 09:20 | -32.79776 | 150.96537 | 24448 ft | 370 kts | 171° |
| 2026-04-30 09:21 | -32.82279 | 150.96983 | 24023 ft | 368 kts | 171° |
| 2026-04-30 09:21 | -32.84832 | 150.97441 | 23553 ft | 365 kts | 171° |
| 2026-04-30 09:21 | -32.87292 | 150.97884 | 23117 ft | 360 kts | 170° |
| 2026-04-30 09:21 | -32.89760 | 150.98326 | 22686 ft | 356 kts | 170° |
| 2026-04-30 09:22 | -32.92196 | 150.98755 | 22238 ft | 353 kts | 171° |
| 2026-04-30 09:22 | -32.94616 | 150.99180 | 21806 ft | 350 kts | 171° |
| 2026-04-30 09:22 | -32.97021 | 150.99611 | 21361 ft | 348 kts | 170° |
| 2026-04-30 09:22 | -32.99404 | 151.00041 | 20916 ft | 346 kts | 170° |
| 2026-04-30 09:23 | -33.01782 | 151.00469 | 20466 ft | 344 kts | 170° |
| 2026-04-30 09:23 | -33.04145 | 151.00892 | 20020 ft | 343 kts | 170° |
| 2026-04-30 09:23 | -33.06503 | 151.01310 | 19571 ft | 342 kts | 170° |
| 2026-04-30 09:23 | -33.08851 | 151.01724 | 19130 ft | 341 kts | 170° |
| 2026-04-30 09:24 | -33.11193 | 151.02140 | 18673 ft | 340 kts | 170° |
| 2026-04-30 09:24 | -33.13530 | 151.02561 | 18181 ft | 339 kts | 170° |
| 2026-04-30 09:24 | -33.15850 | 151.02981 | 17736 ft | 336 kts | 170° |
| 2026-04-30 09:24 | -33.18158 | 151.03400 | 17291 ft | 334 kts | 170° |
| 2026-04-30 09:25 | -33.20419 | 151.03809 | 16858 ft | 332 kts | 170° |
| 2026-04-30 09:25 | -33.22730 | 151.04224 | 16414 ft | 331 kts | 171° |
| 2026-04-30 09:25 | -33.24970 | 151.04626 | 15977 ft | 330 kts | 170° |
| 2026-04-30 09:25 | -33.27234 | 151.05052 | 15538 ft | 329 kts | 170° |
| 2026-04-30 09:26 | -33.29489 | 151.05484 | 15096 ft | 328 kts | 170° |
| 2026-04-30 09:26 | -33.31739 | 151.05921 | 14659 ft | 328 kts | 170° |
| 2026-04-30 09:26 | -33.33988 | 151.06358 | 14227 ft | 327 kts | 170° |
| 2026-04-30 09:26 | -33.36240 | 151.06795 | 13710 ft | 327 kts | 170° |
| 2026-04-30 09:27 | -33.38472 | 151.07223 | 13306 ft | 324 kts | 170° |
| 2026-04-30 09:27 | -33.40694 | 151.07647 | 12882 ft | 322 kts | 170° |
| 2026-04-30 09:27 | -33.42905 | 151.08068 | 12450 ft | 320 kts | 170° |
| 2026-04-30 09:27 | -33.45096 | 151.08492 | 12024 ft | 318 kts | 170° |
| 2026-04-30 09:28 | -33.47281 | 151.08916 | 11601 ft | 317 kts | 170° |
| 2026-04-30 09:28 | -33.49448 | 151.09336 | 11182 ft | 316 kts | 170° |
| 2026-04-30 09:28 | -33.51612 | 151.09753 | 10762 ft | 314 kts | 170° |
| 2026-04-30 09:28 | -33.53750 | 151.10161 | 10545 ft | 306 kts | 170° |
| 2026-04-30 09:29 | -33.55833 | 151.10558 | 10229 ft | 302 kts | 169° |
| 2026-04-30 09:29 | -33.57897 | 151.10954 | 9868 ft | 298 kts | 169° |
| 2026-04-30 09:29 | -33.59939 | 151.11345 | 9482 ft | 297 kts | 169° |
| 2026-04-30 09:29 | -33.61946 | 151.11731 | 9104 ft | 295 kts | 169° |
| 2026-04-30 09:30 | -33.63954 | 151.12127 | 8780 ft | 291 kts | 169° |
| 2026-04-30 09:30 | -33.65936 | 151.12521 | 8602 ft | 287 kts | 169° |
| 2026-04-30 09:30 | -33.67906 | 151.12914 | 8429 ft | 287 kts | 169° |
| 2026-04-30 09:30 | -33.69873 | 151.13302 | 8267 ft | 286 kts | 169° |
| 2026-04-30 09:31 | -33.71830 | 151.13688 | 8105 ft | 284 kts | 169° |
| 2026-04-30 09:31 | -33.73781 | 151.14069 | 7943 ft | 283 kts | 169° |
| 2026-04-30 09:31 | -33.75724 | 151.14450 | 7754 ft | 282 kts | 169° |
| 2026-04-30 09:31 | -33.77657 | 151.14827 | 7599 ft | 281 kts | 169° |
| 2026-04-30 09:32 | -33.79584 | 151.15196 | 7430 ft | 280 kts | 169° |
| 2026-04-30 09:32 | -33.81529 | 151.15275 | 7267 ft | 280 kts | 184° |
| 2026-04-30 09:32 | -33.83439 | 151.14820 | 7100 ft | 280 kts | 192° |
| 2026-04-30 09:32 | -33.85334 | 151.14265 | 6940 ft | 280 kts | 192° |
| 2026-04-30 09:33 | -33.87218 | 151.13720 | 6767 ft | 278 kts | 192° |
| 2026-04-30 09:33 | -33.89103 | 151.13177 | 6593 ft | 279 kts | 192° |
| 2026-04-30 09:33 | -33.90996 | 151.12637 | 6426 ft | 279 kts | 191° |
| 2026-04-30 09:33 | -33.92884 | 151.12099 | 6264 ft | 279 kts | 191° |
| 2026-04-30 09:34 | -33.94774 | 151.11558 | 6109 ft | 278 kts | 192° |
| 2026-04-30 09:34 | -33.96657 | 151.11016 | 5998 ft | 278 kts | 191° |
| 2026-04-30 09:34 | -33.98537 | 151.10473 | 6009 ft | 278 kts | 192° |
| 2026-04-30 09:34 | -34.00421 | 151.09929 | 6011 ft | 278 kts | 192° |
| 2026-04-30 09:35 | -34.01668 | 151.09571 | 6012 ft | 279 kts | 192° |
| 2026-04-30 09:35 | -34.04163 | 151.08847 | 6007 ft | 278 kts | 192° |
| 2026-04-30 09:35 | -34.06025 | 151.08304 | 5541 ft | 274 kts | 192° |
| 2026-04-30 09:35 | -34.07901 | 151.07958 | 4959 ft | 271 kts | 179° |
| 2026-04-30 09:36 | -34.09762 | 151.08180 | 4360 ft | 268 kts | 165° |
| 2026-04-30 09:36 | -34.10994 | 151.08509 | 3954 ft | 269 kts | 165° |
| 2026-04-30 09:36 | -34.12825 | 151.08989 | 3611 ft | 269 kts | 166° |
| 2026-04-30 09:36 | -34.14635 | 151.09456 | 3484 ft | 270 kts | 166° |
| 2026-04-30 09:37 | -34.17088 | 151.10089 | 3313 ft | 269 kts | 165° |
| 2026-04-30 09:37 | -34.18320 | 151.10409 | 3224 ft | 268 kts | 165° |
| 2026-04-30 09:37 | -34.20121 | 151.10875 | 3101 ft | 265 kts | 165° |
| 2026-04-30 09:37 | -34.21879 | 151.11345 | 3000 ft | 252 kts | 161° |
| 2026-04-30 09:38 | -34.23299 | 151.12355 | 3008 ft | 227 kts | 128° |
| 2026-04-30 09:38 | -34.23947 | 151.13939 | 3007 ft | 200 kts | 93° |
| 2026-04-30 09:38 | -34.23742 | 151.15487 | 3008 ft | 182 kts | 67° |
| 2026-04-30 09:38 | -34.23239 | 151.16923 | 3019 ft | 189 kts | 63° |
| 2026-04-30 09:39 | -34.22682 | 151.18382 | 3012 ft | 193 kts | 63° |
| 2026-04-30 09:39 | -34.22120 | 151.19847 | 3011 ft | 192 kts | 63° |
| 2026-04-30 09:39 | -34.21317 | 151.21096 | 3013 ft | 191 kts | 34° |
| 2026-04-30 09:39 | -34.20128 | 151.21825 | 3009 ft | 193 kts | 24° |
| 2026-04-30 09:40 | -34.18892 | 151.22442 | 3006 ft | 192 kts | 22° |
| 2026-04-30 09:40 | -34.17648 | 151.23043 | 3018 ft | 193 kts | 20° |
| 2026-04-30 09:40 | -34.16318 | 151.23226 | 3012 ft | 195 kts | 356° |
| 2026-04-30 09:40 | -34.14975 | 151.22899 | 3013 ft | 197 kts | 350° |
| 2026-04-30 09:41 | -34.13634 | 151.22544 | 3009 ft | 198 kts | 350° |
| 2026-04-30 09:41 | -34.12295 | 151.22193 | 3012 ft | 197 kts | 350° |
| 2026-04-30 09:41 | -34.10949 | 151.21842 | 2874 ft | 198 kts | 350° |
| 2026-04-30 09:41 | -34.09610 | 151.21493 | 2670 ft | 197 kts | 350° |
| 2026-04-30 09:42 | -34.08277 | 151.21146 | 2383 ft | 195 kts | 351° |
| 2026-04-30 09:42 | -34.06954 | 151.20802 | 2125 ft | 194 kts | 351° |
| 2026-04-30 09:42 | -34.05631 | 151.20457 | 1865 ft | 191 kts | 351° |
| 2026-04-30 09:42 | -34.04386 | 151.20132 | 1622 ft | 175 kts | 352° |
| 2026-04-30 09:43 | -34.03282 | 151.19842 | 1403 ft | 149 kts | 351° |
| 2026-04-30 09:43 | -34.02332 | 151.19596 | 1212 ft | 133 kts | 353° |
| 2026-04-30 09:43 | -34.01454 | 151.19369 | 1048 ft | 125 kts | 352° |
| 2026-04-30 09:43 | -34.00610 | 151.19150 | 895 ft | 124 kts | 352° |
| 2026-04-30 09:44 | -33.99789 | 151.18938 | 727 ft | 122 kts | 353° |
| 2026-04-30 09:44 | -33.98954 | 151.18722 | 582 ft | 123 kts | 352° |
| 2026-04-30 09:44 | -33.98106 | 151.18520 | 405 ft | 126 kts | 354° |
| 2026-04-30 09:44 | -33.97258 | 151.18287 | 237 ft | 125 kts | 350° |
| 2026-04-30 09:45 | -33.96409 | 151.18060 | 81 ft | 124 kts | 351° |
| 2026-04-30 09:45 | -33.95616 | 151.17857 | 30 ft | 102 kts | 349° |
| 2026-04-30 09:45 | -33.95053 | 151.17708 | 27 ft | 67 kts | 349° |
| 2026-04-30 09:45 | -33.94725 | 151.17643 | 29 ft | 38 kts | 0° |
| 2026-04-30 09:46 | -33.94542 | 151.17674 | 30 ft | 22 kts | 15° |
| 2026-04-30 09:46 | -33.94441 | 151.17712 | 30 ft | 7 kts | 18° |
| 2026-04-30 09:46 | -33.94374 | 151.17737 | 30 ft | 16 kts | 13° |
| 2026-04-30 09:46 | -33.94219 | 151.17700 | 29 ft | 32 kts | 346° |
| 2026-04-30 09:47 | -33.93977 | 151.17629 | 29 ft | 38 kts | 347° |
| 2026-04-30 09:47 | -33.93727 | 151.17563 | 29 ft | 33 kts | 347° |
| 2026-04-30 09:47 | -33.93539 | 151.17516 | 29 ft | 20 kts | 346° |
| 2026-04-30 09:47 | -33.93456 | 151.17560 | 30 ft | 16 kts | 75° |
| 2026-04-30 09:48 | -33.93353 | 151.17584 | 30 ft | 18 kts | 348° |
| 2026-04-30 09:48 | -33.93270 | 151.17577 | 29 ft | 1 kts | 89° |
| 2026-04-30 09:48 | -33.93265 | 151.17644 | 30 ft | 13 kts | 85° |
| 2026-04-30 09:48 | -33.93260 | 151.17705 | 30 ft | 3 kts | 85° |
| 2026-04-30 09:49 | -33.93260 | 151.17708 | 30 ft | 0 kts | 84° |